UAE95 OMDB-LIRF
Flight info
| Callsign | UAE95 |
|---|---|
| Flight time | N/A |
| Altitude | 38000 |
| Route | ANVIX L223 TARDI N629 BOTAM Y855 LAKLU Q204 NALKI G652 TOKRA DCT ALROK DCT BOSOB DCT ITRUX Y511 KITUB/N0489F400 Y511 PMA Z712 WEJ L677 CVO L617 TANSA DCT TRL DCT OSDES UN1 LATAN DCT VEGAN/N0477F410 DCT SOR/N0469F380 DCT TEA DCT SIPRO/N0368F180 Z803 LAT |
| Aircraft | A359/H-SDE2E3GHIJ3J4J5LM1ORWXY/LB1D1 |
Departure
| Time | 2026-04-24 15:20 |
|---|---|
| Airport | Dubai International Airport (OMDB) |
Arrival
| Time | N/A |
|---|---|
| Airport | Rome–Fiumicino Leonardo da Vinci International Airport (LIRF) |
| Time | Latitude | Longitude | Altitude | Speed | Heading |
|---|---|---|---|---|---|
| 2026-04-24 14:43 | 25.24305 | 55.37445 | 27 ft | 0 kts | 211° |
| 2026-04-24 15:07 | 25.24311 | 55.37449 | 27 ft | 4 kts | 211° |
| 2026-04-24 15:07 | 25.24323 | 55.37457 | 26 ft | 0 kts | 211° |
| 2026-04-24 15:09 | 25.24325 | 55.37459 | 27 ft | 4 kts | 211° |
| 2026-04-24 15:09 | 25.24348 | 55.37474 | 26 ft | 3 kts | 211° |
| 2026-04-24 15:10 | 25.24368 | 55.37485 | 25 ft | 4 kts | 191° |
| 2026-04-24 15:10 | 25.24392 | 55.37483 | 24 ft | 4 kts | 140° |
| 2026-04-24 15:10 | 25.24408 | 55.37460 | 26 ft | 4 kts | 121° |
| 2026-04-24 15:10 | 25.24417 | 55.37445 | 24 ft | 4 kts | 122° |
| 2026-04-24 15:11 | 25.24427 | 55.37427 | 25 ft | 0 kts | 122° |
| 2026-04-24 15:15 | 25.24423 | 55.37435 | 25 ft | 4 kts | 122° |
| 2026-04-24 15:15 | 25.24396 | 55.37483 | 24 ft | 10 kts | 121° |
| 2026-04-24 15:15 | 25.24355 | 55.37556 | 27 ft | 12 kts | 122° |
| 2026-04-24 15:16 | 25.24308 | 55.37639 | 27 ft | 13 kts | 121° |
| 2026-04-24 15:16 | 25.24266 | 55.37714 | 27 ft | 8 kts | 121° |
| 2026-04-24 15:16 | 25.24266 | 55.37768 | 27 ft | 7 kts | 57° |
| 2026-04-24 15:16 | 25.24308 | 55.37804 | 28 ft | 8 kts | 35° |
| 2026-04-24 15:17 | 25.24355 | 55.37840 | 28 ft | 8 kts | 34° |
| 2026-04-24 15:17 | 25.24402 | 55.37876 | 29 ft | 8 kts | 34° |
| 2026-04-24 15:17 | 25.24455 | 55.37916 | 31 ft | 10 kts | 34° |
| 2026-04-24 15:17 | 25.24512 | 55.37959 | 31 ft | 11 kts | 34° |
| 2026-04-24 15:18 | 25.24582 | 55.38012 | 29 ft | 13 kts | 34° |
| 2026-04-24 15:18 | 25.24662 | 55.38068 | 30 ft | 12 kts | 32° |
| 2026-04-24 15:18 | 25.24689 | 55.38086 | 31 ft | 5 kts | 31° |
| 2026-04-24 15:18 | 25.24732 | 55.38112 | 32 ft | 8 kts | 15° |
| 2026-04-24 15:19 | 25.24771 | 55.38085 | 32 ft | 8 kts | 310° |
| 2026-04-24 15:19 | 25.24864 | 55.37922 | 32 ft | 54 kts | 301° |
| 2026-04-24 15:19 | 25.25171 | 55.37369 | 33 ft | 113 kts | 302° |
| 2026-04-24 15:19 | 25.25678 | 55.36456 | 32 ft | 163 kts | 302° |
| 2026-04-24 15:20 | 25.26274 | 55.35354 | 597 ft | 162 kts | 301° |
| 2026-04-24 15:20 | 25.26848 | 55.34299 | 1179 ft | 163 kts | 304° |
| 2026-04-24 15:20 | 25.27461 | 55.33214 | 1597 ft | 168 kts | 304° |
| 2026-04-24 15:20 | 25.28074 | 55.32088 | 1939 ft | 174 kts | 303° |
| 2026-04-24 15:21 | 25.28739 | 55.30903 | 2210 ft | 189 kts | 304° |
| 2026-04-24 15:21 | 25.29282 | 55.29523 | 2428 ft | 207 kts | 282° |
| 2026-04-24 15:21 | 25.29071 | 55.27912 | 2653 ft | 224 kts | 245° |
| 2026-04-24 15:21 | 25.28240 | 55.26420 | 3033 ft | 230 kts | 240° |
| 2026-04-24 15:22 | 25.27508 | 55.24841 | 3576 ft | 231 kts | 246° |
| 2026-04-24 15:22 | 25.26896 | 55.23233 | 4121 ft | 229 kts | 249° |
| 2026-04-24 15:22 | 25.26278 | 55.21624 | 4685 ft | 227 kts | 247° |
| 2026-04-24 15:23 | 25.24906 | 55.18413 | 5575 ft | 234 kts | 243° |
| 2026-04-24 15:23 | 25.22361 | 55.16144 | 6136 ft | 264 kts | 189° |
| 2026-04-24 15:23 | 25.20492 | 55.16356 | 6401 ft | 280 kts | 165° |
| 2026-04-24 15:24 | 25.16472 | 55.21055 | 7676 ft | 297 kts | 117° |
| 2026-04-24 15:25 | 25.14600 | 55.25143 | 8709 ft | 299 kts | 119° |
| 2026-04-24 15:25 | 25.12665 | 55.29245 | 9728 ft | 303 kts | 120° |
| 2026-04-24 15:26 | 25.09673 | 55.35654 | 10592 ft | 330 kts | 116° |
| 2026-04-24 15:27 | 25.06738 | 55.42951 | 11184 ft | 363 kts | 115° |
| 2026-04-24 15:27 | 25.03711 | 55.50898 | 12002 ft | 381 kts | 114° |
| 2026-04-24 15:28 | 24.95181 | 55.68007 | 14431 ft | 392 kts | 122° |
| 2026-04-24 15:29 | 24.88833 | 55.77939 | 15709 ft | 401 kts | 128° |